createdAt,value
2018-07-21T00:04:18.206Z,2.53
2018-07-21T00:09:21.259Z,2.57
2018-07-21T00:14:24.190Z,3.00
2018-07-21T00:19:27.218Z,3.63
2018-07-21T00:24:31.499Z,3.00
2018-07-21T00:29:34.522Z,3.70
2018-07-21T00:34:37.576Z,2.50
2018-07-21T00:39:40.659Z,2.87
2018-07-21T00:44:43.784Z,2.80
2018-07-21T00:49:46.854Z,2.90
2018-07-21T00:54:50.029Z,2.67
2018-07-21T00:59:53.059Z,2.70
2018-07-21T01:04:56.545Z,3.33
2018-07-21T01:09:59.573Z,2.70
2018-07-21T01:15:02.687Z,2.80
2018-07-21T01:20:06.227Z,3.27
2018-07-21T01:25:09.380Z,2.47
2018-07-21T01:30:12.708Z,3.13
2018-07-21T01:35:15.845Z,2.90
2018-07-21T01:40:18.951Z,2.40
2018-07-21T01:45:22.012Z,2.67
2018-07-21T01:50:25.032Z,3.23
2018-07-21T01:55:28.046Z,3.13
2018-07-21T02:00:31.297Z,3.00
2018-07-21T02:05:34.323Z,2.87
2018-07-21T02:10:37.346Z,3.20
2018-07-21T02:15:40.572Z,2.73
2018-07-21T02:20:43.640Z,2.97
2018-07-21T02:25:46.671Z,2.80
2018-07-21T02:30:49.693Z,2.90
2018-07-21T02:35:52.773Z,2.70
2018-07-21T02:40:55.826Z,3.23
2018-07-21T02:45:58.679Z,3.90
2018-07-21T02:51:01.827Z,3.43
2018-07-21T02:56:04.881Z,3.03
2018-07-21T03:01:08.043Z,3.43
2018-07-21T03:06:11.114Z,3.10
2018-07-21T03:11:14.129Z,2.83
2018-07-21T03:16:17.431Z,3.03
2018-07-21T03:21:20.461Z,2.97
2018-07-21T03:26:23.660Z,2.63
2018-07-21T03:31:26.729Z,3.53
2018-07-21T03:36:29.757Z,3.00
2018-07-21T03:41:32.815Z,2.83
2018-07-21T03:46:36.106Z,2.90
2018-07-21T03:51:39.163Z,3.00
2018-07-21T03:56:42.251Z,3.50
2018-07-21T04:01:45.259Z,3.70
2018-07-21T04:06:48.323Z,3.30
2018-07-21T04:11:51.363Z,3.23
2018-07-21T04:16:54.407Z,3.77
2018-07-21T04:21:57.452Z,2.93
2018-07-21T04:27:00.582Z,3.10
2018-07-21T04:32:03.608Z,3.80
2018-07-21T04:37:06.650Z,4.00
2018-07-21T04:42:09.707Z,4.67
2018-07-21T04:47:12.722Z,4.10
2018-07-21T04:52:15.760Z,3.53
2018-07-21T04:57:18.798Z,3.70
2018-07-21T05:02:21.818Z,3.23
2018-07-21T05:07:24.970Z,3.33
2018-07-21T05:12:27.974Z,3.37
2018-07-21T05:17:31.074Z,3.63
2018-07-21T05:22:34.124Z,3.00
2018-07-21T05:27:37.192Z,3.00
2018-07-21T05:32:40.240Z,3.00
2018-07-21T05:37:43.250Z,2.03
2018-07-21T05:42:46.286Z,2.17
2018-07-21T05:47:49.302Z,2.40
2018-07-21T05:52:52.323Z,1.93
2018-07-21T05:57:55.400Z,2.07
2018-07-21T06:02:58.451Z,2.20
2018-07-21T06:08:01.452Z,2.40
2018-07-21T06:13:04.558Z,3.87
2018-07-21T06:18:07.681Z,2.20
2018-07-21T06:23:10.745Z,2.43
2018-07-21T06:28:13.975Z,3.60
2018-07-21T06:33:17.007Z,1.80
2018-07-21T06:38:20.038Z,1.63
2018-07-21T06:43:23.168Z,2.60
2018-07-21T06:48:26.198Z,3.00
2018-07-21T06:53:29.299Z,2.50
2018-07-21T06:58:32.336Z,2.30
2018-07-21T07:03:35.414Z,2.53
2018-07-21T07:08:38.476Z,3.17
2018-07-21T07:13:41.623Z,2.60
2018-07-21T07:18:44.678Z,3.00
2018-07-21T07:23:47.877Z,3.10
2018-07-21T07:28:51.147Z,3.27
2018-07-21T07:33:54.208Z,2.90
2018-07-21T07:38:57.248Z,2.37
2018-07-21T07:44:06.144Z,3.30
2018-07-21T07:49:09.197Z,2.70
2018-07-21T07:54:12.399Z,2.00
2018-07-21T07:59:15.444Z,2.80
2018-07-21T08:04:18.405Z,3.33
2018-07-21T08:09:21.423Z,2.73
2018-07-21T08:14:24.519Z,2.73
2018-07-21T08:19:27.595Z,2.43
2018-07-21T08:24:30.626Z,2.60
2018-07-21T08:29:33.643Z,2.87
2018-07-21T08:34:37.290Z,3.00
2018-07-21T08:39:40.299Z,3.40
2018-07-21T08:44:43.569Z,2.90
2018-07-21T08:49:46.611Z,2.67
2018-07-21T08:54:49.876Z,4.07
2018-07-21T08:59:52.875Z,3.13
2018-07-21T09:04:55.981Z,3.97
2018-07-21T09:09:58.994Z,2.90
2018-07-21T09:15:02.089Z,4.20
2018-07-21T09:20:05.143Z,3.50
2018-07-21T09:25:08.194Z,3.00
2018-07-21T09:30:11.248Z,3.17
2018-07-21T09:35:14.210Z,4.50
2018-07-21T09:40:17.687Z,4.20
2018-07-21T09:45:20.616Z,3.13
2018-07-21T09:50:23.665Z,4.37
2018-07-21T09:55:26.630Z,3.63
2018-07-21T10:00:35.153Z,3.57
2018-07-21T10:05:38.191Z,3.33
2018-07-21T10:10:41.046Z,3.40
2018-07-21T10:15:44.056Z,4.10
2018-07-21T10:20:47.088Z,4.33
2018-07-21T10:25:55.651Z,3.17
2018-07-21T10:30:58.801Z,4.33
2018-07-21T10:36:01.913Z,3.63
2018-07-21T10:41:05.000Z,3.80
2018-07-21T10:46:08.033Z,3.50
2018-07-21T10:51:11.183Z,3.93
2018-07-21T10:56:14.202Z,3.90
2018-07-21T11:01:17.233Z,3.73
2018-07-21T11:06:20.241Z,5.10
2018-07-21T11:11:23.345Z,4.50
2018-07-21T11:16:26.269Z,3.30
2018-07-21T11:21:29.531Z,4.03
2018-07-21T11:26:32.580Z,3.80
2018-07-21T11:31:35.451Z,3.80
2018-07-21T11:36:38.471Z,3.90
2018-07-21T11:41:41.548Z,4.37
2018-07-21T11:46:44.651Z,3.60
2018-07-21T11:51:47.675Z,4.30
2018-07-21T11:56:54.363Z,4.30
2018-07-21T12:01:58.324Z,4.10
2018-07-21T12:07:01.467Z,3.87
2018-07-21T12:12:09.743Z,4.43
2018-07-21T12:17:12.824Z,4.30
2018-07-21T12:22:15.844Z,5.30
2018-07-21T12:27:19.054Z,5.40
2018-07-21T12:32:22.075Z,4.47
2018-07-21T12:37:25.128Z,4.47
2018-07-21T12:42:28.252Z,4.33
2018-07-21T12:47:31.266Z,4.30
2018-07-21T12:52:34.309Z,4.53
2018-07-21T12:57:37.371Z,4.77
2018-07-21T13:02:40.644Z,5.47
2018-07-21T13:07:43.687Z,4.13
2018-07-21T13:12:46.726Z,3.73
2018-07-21T13:17:49.779Z,6.60
2018-07-21T13:22:52.815Z,3.90
2018-07-21T13:27:55.807Z,5.10
2018-07-21T13:32:58.838Z,4.50
2018-07-21T13:38:01.865Z,5.30
2018-07-21T13:43:05.113Z,5.07
2018-07-21T13:48:08.119Z,4.47
2018-07-21T13:53:11.155Z,4.50
2018-07-21T13:58:14.191Z,4.30
2018-07-21T14:03:17.222Z,5.80
2018-07-21T14:08:20.339Z,5.33
2018-07-21T14:13:23.385Z,4.90
2018-07-21T14:18:26.446Z,4.70
2018-07-21T14:23:29.571Z,5.67
2018-07-21T14:28:32.709Z,4.57
2018-07-21T14:33:35.773Z,5.10
2018-07-21T14:38:38.807Z,5.27
2018-07-21T14:43:41.909Z,5.37
2018-07-21T14:48:45.029Z,5.03
2018-07-21T14:53:48.068Z,4.97
2018-07-21T14:58:51.100Z,5.03
2018-07-21T15:03:54.140Z,5.83
2018-07-21T15:08:57.202Z,5.20
2018-07-21T15:14:00.361Z,5.33
2018-07-21T15:19:03.399Z,5.50
2018-07-21T15:24:06.420Z,6.00
2018-07-21T15:29:09.437Z,6.00
2018-07-21T15:34:12.546Z,5.60
2018-07-21T15:39:15.586Z,5.40
2018-07-21T15:44:18.603Z,5.17
2018-07-21T15:49:21.611Z,5.37
2018-07-21T15:54:24.663Z,5.07
2018-07-21T15:59:27.727Z,5.33
2018-07-21T16:04:30.877Z,4.90
2018-07-21T16:09:34.070Z,5.07
2018-07-21T16:14:37.127Z,5.80
2018-07-21T16:19:40.169Z,6.00
2018-07-21T16:24:43.401Z,5.67
2018-07-21T16:29:46.477Z,4.73
2018-07-21T16:34:49.802Z,5.60
2018-07-21T16:39:52.880Z,5.10
2018-07-21T16:44:56.055Z,4.93
2018-07-21T16:49:59.128Z,4.83
2018-07-21T16:55:03.249Z,5.77
2018-07-21T17:00:06.333Z,4.90
2018-07-21T17:05:09.443Z,5.23
2018-07-21T17:10:12.540Z,5.43
2018-07-21T17:15:15.611Z,5.57
2018-07-21T17:20:18.836Z,5.17
2018-07-21T17:25:22.140Z,6.70
2018-07-21T17:30:25.533Z,5.40
2018-07-21T17:35:28.606Z,4.87
2018-07-21T17:40:31.645Z,5.07
2018-07-21T17:45:34.691Z,4.87
2018-07-21T17:50:37.742Z,6.17
2018-07-21T17:55:40.991Z,5.00
2018-07-21T18:00:44.003Z,5.47
2018-07-21T18:05:47.056Z,4.40
2018-07-21T18:10:50.102Z,4.90
2018-07-21T18:15:53.139Z,4.50
2018-07-21T18:20:57.391Z,4.70
2018-07-21T18:26:00.745Z,5.20
2018-07-21T18:31:03.862Z,4.80
2018-07-21T18:36:07.279Z,5.40
2018-07-21T18:41:10.991Z,5.27
2018-07-21T18:46:14.368Z,5.37
2018-07-21T18:51:17.415Z,5.07
2018-07-21T18:56:20.735Z,4.80
2018-07-21T19:01:24.181Z,4.67
2018-07-21T19:06:27.573Z,4.97
2018-07-21T19:11:31.516Z,6.03
2018-07-21T19:16:41.840Z,5.13
2018-07-21T19:21:45.264Z,5.70
2018-07-21T19:26:54.186Z,4.70
2018-07-21T19:32:02.895Z,4.67
2018-07-21T19:37:10.382Z,4.97
2018-07-21T19:42:13.460Z,4.27
2018-07-21T19:47:16.563Z,5.40
2018-07-21T19:52:19.934Z,5.87
2018-07-21T19:57:23.242Z,4.80
2018-07-21T20:02:26.283Z,4.67
2018-07-21T20:07:29.380Z,4.97
2018-07-21T20:12:32.507Z,5.70
2018-07-21T20:17:35.598Z,4.87
2018-07-21T20:22:38.653Z,5.62
2018-07-21T20:27:42.118Z,5.50
2018-07-21T20:32:45.166Z,5.87
2018-07-21T20:37:48.066Z,5.40
2018-07-21T20:42:51.487Z,5.50
2018-07-21T20:47:54.511Z,6.37
2018-07-21T20:52:57.544Z,7.27
2018-07-21T20:58:02.187Z,5.43
2018-07-21T21:03:05.334Z,5.83
2018-07-21T21:08:08.387Z,5.83
2018-07-21T21:13:11.395Z,5.57
2018-07-21T21:18:14.508Z,5.43
2018-07-21T21:23:17.864Z,6.00
2018-07-21T21:28:20.946Z,6.20
2018-07-21T21:33:24.008Z,6.27
2018-07-21T21:38:27.041Z,6.33
2018-07-21T21:43:30.130Z,5.23
2018-07-21T21:48:33.141Z,5.93
2018-07-21T21:53:36.232Z,5.63
2018-07-21T21:58:39.274Z,6.10
2018-07-21T22:03:43.471Z,5.50
2018-07-21T22:08:46.636Z,6.33
2018-07-21T22:13:49.634Z,5.70
2018-07-21T22:18:52.721Z,5.77
2018-07-21T22:23:55.713Z,5.40
2018-07-21T22:28:58.795Z,5.90
2018-07-21T22:34:01.900Z,6.23
2018-07-21T22:39:08.603Z,5.70
2018-07-21T22:44:11.739Z,5.83
2018-07-21T22:49:14.836Z,5.90
2018-07-21T22:54:17.900Z,5.70
2018-07-21T22:59:21.068Z,4.83
2018-07-21T23:04:24.195Z,4.80
2018-07-21T23:09:27.250Z,5.13
2018-07-21T23:14:30.335Z,5.57
2018-07-21T23:19:33.420Z,6.53
2018-07-21T23:24:36.755Z,4.47
2018-07-21T23:29:39.795Z,5.00
2018-07-21T23:34:43.541Z,6.00
2018-07-21T23:39:46.573Z,5.63
2018-07-21T23:44:49.655Z,4.87
2018-07-21T23:49:52.686Z,5.90
2018-07-21T23:54:55.787Z,5.07
2018-07-21T23:59:58.793Z,5.17
